sensor_id;sensor_type;location;lat;lon;timestamp;temperature;humidity
7016;DHT22;3548;48.402;9.990;2023-01-16T00:01:10;2.60;99.90
7016;DHT22;3548;48.402;9.990;2023-01-16T00:03:36;2.60;99.90
7016;DHT22;3548;48.402;9.990;2023-01-16T00:06:01;2.50;99.90
7016;DHT22;3548;48.402;9.990;2023-01-16T00:08:27;2.50;99.90
7016;DHT22;3548;48.402;9.990;2023-01-16T00:10:52;2.50;99.90
7016;DHT22;3548;48.402;9.990;2023-01-16T00:13:18;2.40;99.90
7016;DHT22;3548;48.402;9.990;2023-01-16T00:15:45;2.40;99.90
7016;DHT22;3548;48.402;9.990;2023-01-16T00:18:11;2.30;99.90
7016;DHT22;3548;48.402;9.990;2023-01-16T00:20:37;2.30;99.90
7016;DHT22;3548;48.402;9.990;2023-01-16T00:23:04;2.30;99.90
7016;DHT22;3548;48.402;9.990;2023-01-16T00:25:29;2.30;99.90
7016;DHT22;3548;48.402;9.990;2023-01-16T00:27:55;2.30;99.90
7016;DHT22;3548;48.402;9.990;2023-01-16T00:30:20;2.30;99.90
7016;DHT22;3548;48.402;9.990;2023-01-16T00:32:46;2.30;99.90
7016;DHT22;3548;48.402;9.990;2023-01-16T00:35:12;2.30;99.90
7016;DHT22;3548;48.402;9.990;2023-01-16T00:37:38;2.30;99.90
7016;DHT22;3548;48.402;9.990;2023-01-16T00:40:04;2.20;99.90
7016;DHT22;3548;48.402;9.990;2023-01-16T00:42:29;2.20;99.90
7016;DHT22;3548;48.402;9.990;2023-01-16T00:44:55;2.20;99.90
7016;DHT22;3548;48.402;9.990;2023-01-16T00:47:21;2.20;99.90
7016;DHT22;3548;48.402;9.990;2023-01-16T00:49:46;2.20;99.90
7016;DHT22;3548;48.402;9.990;2023-01-16T00:52:12;2.20;99.90
7016;DHT22;3548;48.402;9.990;2023-01-16T00:54:37;2.10;99.90
7016;DHT22;3548;48.402;9.990;2023-01-16T00:57:03;2.10;99.90
7016;DHT22;3548;48.402;9.990;2023-01-16T00:59:28;2.10;99.90
7016;DHT22;3548;48.402;9.990;2023-01-16T01:01:54;2.10;99.90
7016;DHT22;3548;48.402;9.990;2023-01-16T01:04:20;2.10;99.90
7016;DHT22;3548;48.402;9.990;2023-01-16T01:06:45;2.00;99.90
7016;DHT22;3548;48.402;9.990;2023-01-16T01:09:11;2.00;99.90
7016;DHT22;3548;48.402;9.990;2023-01-16T01:11:36;2.10;99.90
7016;DHT22;3548;48.402;9.990;2023-01-16T01:14:02;2.10;99.90
7016;DHT22;3548;48.402;9.990;2023-01-16T01:16:28;2.10;99.90
7016;DHT22;3548;48.402;9.990;2023-01-16T01:18:53;2.20;99.90
7016;DHT22;3548;48.402;9.990;2023-01-16T01:21:19;2.20;99.90
7016;DHT22;3548;48.402;9.990;2023-01-16T01:23:44;2.20;99.90
7016;DHT22;3548;48.402;9.990;2023-01-16T01:26:13;2.20;99.90
7016;DHT22;3548;48.402;9.990;2023-01-16T01:28:39;2.20;99.90
7016;DHT22;3548;48.402;9.990;2023-01-16T01:31:07;2.10;99.90
7016;DHT22;3548;48.402;9.990;2023-01-16T01:33:33;2.10;99.90
7016;DHT22;3548;48.402;9.990;2023-01-16T01:35:59;2.10;99.90
7016;DHT22;3548;48.402;9.990;2023-01-16T01:38:25;2.10;99.90
7016;DHT22;3548;48.402;9.990;2023-01-16T01:40:50;2.10;99.90
7016;DHT22;3548;48.402;9.990;2023-01-16T01:43:17;2.10;99.90
7016;DHT22;3548;48.402;9.990;2023-01-16T01:45:54;2.10;99.90
7016;DHT22;3548;48.402;9.990;2023-01-16T01:48:28;2.10;99.90
7016;DHT22;3548;48.402;9.990;2023-01-16T01:51:07;2.00;99.90
7016;DHT22;3548;48.402;9.990;2023-01-16T01:53:41;2.00;99.90
7016;DHT22;3548;48.402;9.990;2023-01-16T01:56:13;2.00;99.90
7016;DHT22;3548;48.402;9.990;2023-01-16T01:58:39;1.90;99.90
7016;DHT22;3548;48.402;9.990;2023-01-16T02:01:05;1.90;99.90
7016;DHT22;3548;48.402;9.990;2023-01-16T02:03:36;1.90;99.90
7016;DHT22;3548;48.402;9.990;2023-01-16T02:06:12;1.90;99.90
7016;DHT22;3548;48.402;9.990;2023-01-16T02:08:40;1.90;99.90
7016;DHT22;3548;48.402;9.990;2023-01-16T02:11:13;1.80;99.90
7016;DHT22;3548;48.402;9.990;2023-01-16T02:14:04;1.80;99.90
7016;DHT22;3548;48.402;9.990;2023-01-16T02:16:30;1.80;99.90
7016;DHT22;3548;48.402;9.990;2023-01-16T02:19:23;1.80;99.90
7016;DHT22;3548;48.402;9.990;2023-01-16T02:33:41;1.60;99.90
7016;DHT22;3548;48.402;9.990;2023-01-16T02:47:35;1.30;99.90
7016;DHT22;3548;48.402;9.990;2023-01-16T02:50:10;1.30;99.90
7016;DHT22;3548;48.402;9.990;2023-01-16T02:55:32;1.20;99.90
7016;DHT22;3548;48.402;9.990;2023-01-16T02:58:04;1.20;99.90
7016;DHT22;3548;48.402;9.990;2023-01-16T03:00:31;1.10;99.90
7016;DHT22;3548;48.402;9.990;2023-01-16T03:02:58;1.10;99.90
7016;DHT22;3548;48.402;9.990;2023-01-16T03:05:24;1.10;99.90
7016;DHT22;3548;48.402;9.990;2023-01-16T03:08:18;1.10;99.90
7016;DHT22;3548;48.402;9.990;2023-01-16T03:10:50;1.10;99.90
7016;DHT22;3548;48.402;9.990;2023-01-16T03:18:53;1.00;99.90
7016;DHT22;3548;48.402;9.990;2023-01-16T03:21:34;1.00;99.90
7016;DHT22;3548;48.402;9.990;2023-01-16T03:27:55;1.00;99.90
7016;DHT22;3548;48.402;9.990;2023-01-16T03:31:06;1.00;99.90
7016;DHT22;3548;48.402;9.990;2023-01-16T03:36:04;1.10;99.90
7016;DHT22;3548;48.402;9.990;2023-01-16T03:38:32;1.10;99.90
7016;DHT22;3548;48.402;9.990;2023-01-16T03:41:01;1.10;99.90
7016;DHT22;3548;48.402;9.990;2023-01-16T03:43:32;1.10;99.90
7016;DHT22;3548;48.402;9.990;2023-01-16T03:48:48;1.10;99.90
7016;DHT22;3548;48.402;9.990;2023-01-16T03:51:35;1.10;99.90
7016;DHT22;3548;48.402;9.990;2023-01-16T03:54:15;1.10;99.90
7016;DHT22;3548;48.402;9.990;2023-01-16T03:56:48;1.10;99.90
7016;DHT22;3548;48.402;9.990;2023-01-16T03:59:16;1.00;99.90
7016;DHT22;3548;48.402;9.990;2023-01-16T04:01:53;1.00;99.90
7016;DHT22;3548;48.402;9.990;2023-01-16T04:07:09;1.10;99.90
7016;DHT22;3548;48.402;9.990;2023-01-16T04:09:58;1.10;99.90
7016;DHT22;3548;48.402;9.990;2023-01-16T04:12:28;1.10;99.90
7016;DHT22;3548;48.402;9.990;2023-01-16T04:14:58;1.10;99.90
7016;DHT22;3548;48.402;9.990;2023-01-16T04:17:25;1.00;99.90
7016;DHT22;3548;48.402;9.990;2023-01-16T04:19:51;0.90;99.90
7016;DHT22;3548;48.402;9.990;2023-01-16T04:22:25;0.90;99.90
7016;DHT22;3548;48.402;9.990;2023-01-16T04:24:52;0.80;99.90
7016;DHT22;3548;48.402;9.990;2023-01-16T04:27:20;0.70;99.90
7016;DHT22;3548;48.402;9.990;2023-01-16T04:29:46;0.70;99.90
7016;DHT22;3548;48.402;9.990;2023-01-16T04:32:12;0.70;99.90
7016;DHT22;3548;48.402;9.990;2023-01-16T04:34:44;0.70;99.90
7016;DHT22;3548;48.402;9.990;2023-01-16T04:37:13;0.70;99.90
7016;DHT22;3548;48.402;9.990;2023-01-16T04:39:39;0.80;99.90
7016;DHT22;3548;48.402;9.990;2023-01-16T04:42:06;0.80;99.90
7016;DHT22;3548;48.402;9.990;2023-01-16T04:44:31;0.80;99.90
7016;DHT22;3548;48.402;9.990;2023-01-16T04:46:58;0.80;99.90
7016;DHT22;3548;48.402;9.990;2023-01-16T04:49:24;0.80;99.90
7016;DHT22;3548;48.402;9.990;2023-01-16T04:51:49;0.80;99.90
7016;DHT22;3548;48.402;9.990;2023-01-16T04:54:17;0.80;99.90
7016;DHT22;3548;48.402;9.990;2023-01-16T04:56:43;0.80;99.90
7016;DHT22;3548;48.402;9.990;2023-01-16T04:59:10;0.70;99.90
7016;DHT22;3548;48.402;9.990;2023-01-16T05:01:36;0.70;99.90
7016;DHT22;3548;48.402;9.990;2023-01-16T05:04:03;0.70;99.90
7016;DHT22;3548;48.402;9.990;2023-01-16T05:06:29;0.70;99.90
7016;DHT22;3548;48.402;9.990;2023-01-16T05:08:55;0.70;99.90
7016;DHT22;3548;48.402;9.990;2023-01-16T05:11:21;0.70;99.90
7016;DHT22;3548;48.402;9.990;2023-01-16T05:13:46;0.60;99.90
7016;DHT22;3548;48.402;9.990;2023-01-16T05:16:12;0.60;99.90
7016;DHT22;3548;48.402;9.990;2023-01-16T05:18:37;0.50;99.90
7016;DHT22;3548;48.402;9.990;2023-01-16T05:21:03;0.40;99.90
7016;DHT22;3548;48.402;9.990;2023-01-16T05:23:33;0.30;99.90
7016;DHT22;3548;48.402;9.990;2023-01-16T05:26:00;0.30;99.90
7016;DHT22;3548;48.402;9.990;2023-01-16T05:28:26;0.30;99.90
7016;DHT22;3548;48.402;9.990;2023-01-16T05:30:52;0.30;99.90
7016;DHT22;3548;48.402;9.990;2023-01-16T05:33:18;0.40;99.90
7016;DHT22;3548;48.402;9.990;2023-01-16T05:35:45;0.40;99.90
7016;DHT22;3548;48.402;9.990;2023-01-16T05:38:12;0.40;99.90
7016;DHT22;3548;48.402;9.990;2023-01-16T05:40:37;0.40;99.90
7016;DHT22;3548;48.402;9.990;2023-01-16T05:43:03;0.40;99.90
7016;DHT22;3548;48.402;9.990;2023-01-16T05:45:29;0.40;99.90
7016;DHT22;3548;48.402;9.990;2023-01-16T05:47:55;0.30;99.90
7016;DHT22;3548;48.402;9.990;2023-01-16T05:50:21;0.30;99.90
7016;DHT22;3548;48.402;9.990;2023-01-16T05:52:47;0.30;99.90
7016;DHT22;3548;48.402;9.990;2023-01-16T05:55:12;0.30;99.90
7016;DHT22;3548;48.402;9.990;2023-01-16T05:57:38;0.30;99.90
7016;DHT22;3548;48.402;9.990;2023-01-16T06:00:05;0.30;99.90
7016;DHT22;3548;48.402;9.990;2023-01-16T06:02:31;0.30;99.90
7016;DHT22;3548;48.402;9.990;2023-01-16T06:04:58;0.30;99.90
7016;DHT22;3548;48.402;9.990;2023-01-16T06:07:24;0.40;99.90
7016;DHT22;3548;48.402;9.990;2023-01-16T06:09:49;0.40;99.90
7016;DHT22;3548;48.402;9.990;2023-01-16T06:12:16;0.40;99.90
7016;DHT22;3548;48.402;9.990;2023-01-16T06:14:43;0.40;99.90
7016;DHT22;3548;48.402;9.990;2023-01-16T06:17:09;0.50;99.90
7016;DHT22;3548;48.402;9.990;2023-01-16T06:19:35;0.50;99.90
7016;DHT22;3548;48.402;9.990;2023-01-16T06:22:00;0.60;99.90
7016;DHT22;3548;48.402;9.990;2023-01-16T06:24:26;0.50;99.90
7016;DHT22;3548;48.402;9.990;2023-01-16T06:26:52;0.60;99.90
7016;DHT22;3548;48.402;9.990;2023-01-16T06:29:17;0.60;99.90
7016;DHT22;3548;48.402;9.990;2023-01-16T06:31:44;0.60;99.90
7016;DHT22;3548;48.402;9.990;2023-01-16T06:34:11;0.60;99.90
7016;DHT22;3548;48.402;9.990;2023-01-16T06:36:37;0.60;99.90
7016;DHT22;3548;48.402;9.990;2023-01-16T06:39:03;0.60;99.90
7016;DHT22;3548;48.402;9.990;2023-01-16T06:41:29;0.60;99.90
7016;DHT22;3548;48.402;9.990;2023-01-16T06:43:54;0.60;99.90
7016;DHT22;3548;48.402;9.990;2023-01-16T06:46:20;0.60;99.90
7016;DHT22;3548;48.402;9.990;2023-01-16T06:48:45;0.70;99.90
7016;DHT22;3548;48.402;9.990;2023-01-16T06:51:11;0.70;99.90
7016;DHT22;3548;48.402;9.990;2023-01-16T06:53:37;0.70;99.90
7016;DHT22;3548;48.402;9.990;2023-01-16T06:56:03;0.70;99.90
7016;DHT22;3548;48.402;9.990;2023-01-16T06:58:28;0.70;99.90
7016;DHT22;3548;48.402;9.990;2023-01-16T07:00:54;0.70;99.90
7016;DHT22;3548;48.402;9.990;2023-01-16T07:03:20;0.60;99.90
7016;DHT22;3548;48.402;9.990;2023-01-16T07:05:46;0.70;99.90
7016;DHT22;3548;48.402;9.990;2023-01-16T07:08:13;0.70;99.90
7016;DHT22;3548;48.402;9.990;2023-01-16T07:10:38;0.70;99.90
7016;DHT22;3548;48.402;9.990;2023-01-16T07:13:04;0.70;99.90
7016;DHT22;3548;48.402;9.990;2023-01-16T07:15:30;0.70;99.90
7016;DHT22;3548;48.402;9.990;2023-01-16T07:18:16;0.70;99.90
7016;DHT22;3548;48.402;9.990;2023-01-16T07:21:02;0.80;99.90
7016;DHT22;3548;48.402;9.990;2023-01-16T07:23:56;1.00;99.90
7016;DHT22;3548;48.402;9.990;2023-01-16T07:26:22;1.10;99.90
7016;DHT22;3548;48.402;9.990;2023-01-16T07:28:49;1.10;99.90
7016;DHT22;3548;48.402;9.990;2023-01-16T07:31:16;1.10;99.90
7016;DHT22;3548;48.402;9.990;2023-01-16T07:33:42;1.20;99.90
7016;DHT22;3548;48.402;9.990;2023-01-16T07:36:07;1.30;99.90
7016;DHT22;3548;48.402;9.990;2023-01-16T07:38:33;1.40;99.90
7016;DHT22;3548;48.402;9.990;2023-01-16T07:40:59;1.50;99.90
7016;DHT22;3548;48.402;9.990;2023-01-16T07:43:24;1.50;99.90
7016;DHT22;3548;48.402;9.990;2023-01-16T07:45:50;1.60;99.90
7016;DHT22;3548;48.402;9.990;2023-01-16T07:48:21;1.60;99.90
7016;DHT22;3548;48.402;9.990;2023-01-16T07:50:55;1.70;99.90
7016;DHT22;3548;48.402;9.990;2023-01-16T07:53:23;1.70;99.90
7016;DHT22;3548;48.402;9.990;2023-01-16T07:55:50;1.70;99.90
7016;DHT22;3548;48.402;9.990;2023-01-16T07:58:16;1.80;99.90
7016;DHT22;3548;48.402;9.990;2023-01-16T08:00:42;1.90;99.90
7016;DHT22;3548;48.402;9.990;2023-01-16T08:03:08;2.00;99.90
7016;DHT22;3548;48.402;9.990;2023-01-16T08:05:34;2.00;99.90
7016;DHT22;3548;48.402;9.990;2023-01-16T08:07:59;1.90;99.90
7016;DHT22;3548;48.402;9.990;2023-01-16T08:10:25;1.80;99.90
7016;DHT22;3548;48.402;9.990;2023-01-16T08:12:51;1.90;99.90
7016;DHT22;3548;48.402;9.990;2023-01-16T08:15:16;2.00;99.90
7016;DHT22;3548;48.402;9.990;2023-01-16T08:17:43;2.20;99.90
7016;DHT22;3548;48.402;9.990;2023-01-16T08:20:10;2.40;99.90
7016;DHT22;3548;48.402;9.990;2023-01-16T08:22:44;2.60;99.90
7016;DHT22;3548;48.402;9.990;2023-01-16T08:25:11;2.80;99.90
7016;DHT22;3548;48.402;9.990;2023-01-16T08:27:37;2.90;99.90
7016;DHT22;3548;48.402;9.990;2023-01-16T08:30:07;3.10;99.90
7016;DHT22;3548;48.402;9.990;2023-01-16T08:32:33;3.10;99.90
7016;DHT22;3548;48.402;9.990;2023-01-16T08:34:59;3.30;99.90
7016;DHT22;3548;48.402;9.990;2023-01-16T08:37:24;3.40;99.90
7016;DHT22;3548;48.402;9.990;2023-01-16T08:39:50;3.50;99.90
7016;DHT22;3548;48.402;9.990;2023-01-16T08:42:15;3.60;99.90
7016;DHT22;3548;48.402;9.990;2023-01-16T08:45:00;3.60;99.90
7016;DHT22;3548;48.402;9.990;2023-01-16T08:47:44;3.70;99.90
7016;DHT22;3548;48.402;9.990;2023-01-16T08:50:28;3.70;99.90
7016;DHT22;3548;48.402;9.990;2023-01-16T08:53:12;3.70;99.90
7016;DHT22;3548;48.402;9.990;2023-01-16T08:55:38;3.80;99.90
7016;DHT22;3548;48.402;9.990;2023-01-16T08:58:06;3.90;99.90
7016;DHT22;3548;48.402;9.990;2023-01-16T09:00:33;3.90;99.90
7016;DHT22;3548;48.402;9.990;2023-01-16T09:02:59;3.90;99.90
7016;DHT22;3548;48.402;9.990;2023-01-16T09:05:27;3.60;99.90
7016;DHT22;3548;48.402;9.990;2023-01-16T09:07:53;3.30;99.90
7016;DHT22;3548;48.402;9.990;2023-01-16T09:10:19;3.00;99.90
7016;DHT22;3548;48.402;9.990;2023-01-16T09:12:45;2.80;99.90
7016;DHT22;3548;48.402;9.990;2023-01-16T09:15:29;2.70;99.90
7016;DHT22;3548;48.402;9.990;2023-01-16T09:17:55;2.50;99.90
7016;DHT22;3548;48.402;9.990;2023-01-16T09:20:20;2.40;99.90
7016;DHT22;3548;48.402;9.990;2023-01-16T09:22:46;2.40;99.90
7016;DHT22;3548;48.402;9.990;2023-01-16T09:25:12;2.40;99.90
7016;DHT22;3548;48.402;9.990;2023-01-16T09:27:38;2.50;99.90
7016;DHT22;3548;48.402;9.990;2023-01-16T09:30:05;2.50;99.90
7016;DHT22;3548;48.402;9.990;2023-01-16T09:32:31;2.60;99.90
7016;DHT22;3548;48.402;9.990;2023-01-16T09:34:59;2.60;99.90
7016;DHT22;3548;48.402;9.990;2023-01-16T09:37:24;2.70;99.90
7016;DHT22;3548;48.402;9.990;2023-01-16T09:39:50;2.80;99.90
7016;DHT22;3548;48.402;9.990;2023-01-16T09:42:45;2.80;99.90
7016;DHT22;3548;48.402;9.990;2023-01-16T09:45:32;2.90;99.90
7016;DHT22;3548;48.402;9.990;2023-01-16T09:48:03;2.90;99.90
7016;DHT22;3548;48.402;9.990;2023-01-16T09:50:38;3.00;99.90
7016;DHT22;3548;48.402;9.990;2023-01-16T09:53:20;3.10;99.90
7016;DHT22;3548;48.402;9.990;2023-01-16T09:56:09;3.30;99.90
7016;DHT22;3548;48.402;9.990;2023-01-16T09:59:16;3.50;99.90
7016;DHT22;3548;48.402;9.990;2023-01-16T10:01:51;3.70;99.90
7016;DHT22;3548;48.402;9.990;2023-01-16T10:04:22;3.80;99.90
7016;DHT22;3548;48.402;9.990;2023-01-16T10:12:36;3.90;99.90
7016;DHT22;3548;48.402;9.990;2023-01-16T10:21:07;4.20;99.90
7016;DHT22;3548;48.402;9.990;2023-01-16T10:23:53;4.30;99.90
7016;DHT22;3548;48.402;9.990;2023-01-16T10:26:29;4.30;99.90
7016;DHT22;3548;48.402;9.990;2023-01-16T10:31:57;4.30;99.90
7016;DHT22;3548;48.402;9.990;2023-01-16T10:34:31;4.30;99.90
7016;DHT22;3548;48.402;9.990;2023-01-16T10:36:59;4.30;99.90
7016;DHT22;3548;48.402;9.990;2023-01-16T10:39:34;4.40;99.90
7016;DHT22;3548;48.402;9.990;2023-01-16T10:42:12;4.50;99.90
7016;DHT22;3548;48.402;9.990;2023-01-16T10:47:48;4.60;99.90
7016;DHT22;3548;48.402;9.990;2023-01-16T10:50:34;4.50;99.90
7016;DHT22;3548;48.402;9.990;2023-01-16T10:53:01;4.50;99.90
7016;DHT22;3548;48.402;9.990;2023-01-16T10:55:27;4.60;99.90
7016;DHT22;3548;48.402;9.990;2023-01-16T10:57:56;4.60;99.90
7016;DHT22;3548;48.402;9.990;2023-01-16T11:00:29;4.60;99.90
7016;DHT22;3548;48.402;9.990;2023-01-16T11:03:17;4.60;99.90
7016;DHT22;3548;48.402;9.990;2023-01-16T11:05:44;4.60;99.90
7016;DHT22;3548;48.402;9.990;2023-01-16T11:08:16;4.60;99.90
7016;DHT22;3548;48.402;9.990;2023-01-16T11:10:45;4.60;99.90
7016;DHT22;3548;48.402;9.990;2023-01-16T11:13:22;4.60;99.90
7016;DHT22;3548;48.402;9.990;2023-01-16T11:19:18;4.70;99.90
7016;DHT22;3548;48.402;9.990;2023-01-16T11:21:53;4.80;99.90
7016;DHT22;3548;48.402;9.990;2023-01-16T11:24:22;4.80;99.90
7016;DHT22;3548;48.402;9.990;2023-01-16T11:26:51;4.70;99.90
7016;DHT22;3548;48.402;9.990;2023-01-16T11:29:18;4.70;99.90
7016;DHT22;3548;48.402;9.990;2023-01-16T11:31:54;4.70;99.90
7016;DHT22;3548;48.402;9.990;2023-01-16T11:34:21;4.70;99.90
7016;DHT22;3548;48.402;9.990;2023-01-16T11:36:53;4.70;99.90
7016;DHT22;3548;48.402;9.990;2023-01-16T11:39:23;4.70;99.90
7016;DHT22;3548;48.402;9.990;2023-01-16T11:41:52;4.70;99.90
7016;DHT22;3548;48.402;9.990;2023-01-16T11:47:05;4.60;99.90
7016;DHT22;3548;48.402;9.990;2023-01-16T11:49:40;4.60;99.90
7016;DHT22;3548;48.402;9.990;2023-01-16T11:52:13;4.60;99.90
7016;DHT22;3548;48.402;9.990;2023-01-16T11:54:39;4.60;99.90
7016;DHT22;3548;48.402;9.990;2023-01-16T12:08:50;4.60;99.90
7016;DHT22;3548;48.402;9.990;2023-01-16T12:20:08;4.70;99.90
7016;DHT22;3548;48.402;9.990;2023-01-16T12:23:06;4.80;99.90
7016;DHT22;3548;48.402;9.990;2023-01-16T12:25:54;4.70;99.90
7016;DHT22;3548;48.402;9.990;2023-01-16T12:31:44;4.70;99.90
7016;DHT22;3548;48.402;9.990;2023-01-16T12:45:57;4.80;99.90
7016;DHT22;3548;48.402;9.990;2023-01-16T12:48:49;4.80;99.90
7016;DHT22;3548;48.402;9.990;2023-01-16T12:56:49;4.90;99.90
7016;DHT22;3548;48.402;9.990;2023-01-16T13:05:01;5.10;99.90
7016;DHT22;3548;48.402;9.990;2023-01-16T13:07:32;5.10;99.90
7016;DHT22;3548;48.402;9.990;2023-01-16T13:10:03;5.10;99.90
7016;DHT22;3548;48.402;9.990;2023-01-16T13:13:00;5.10;99.90
7016;DHT22;3548;48.402;9.990;2023-01-16T13:15:49;5.00;99.90
7016;DHT22;3548;48.402;9.990;2023-01-16T13:19:09;4.80;99.90
7016;DHT22;3548;48.402;9.990;2023-01-16T13:21:26;4.70;99.90
7016;DHT22;3548;48.402;9.990;2023-01-16T13:26:31;4.40;99.90
7016;DHT22;3548;48.402;9.990;2023-01-16T13:31:53;4.10;99.90
7016;DHT22;3548;48.402;9.990;2023-01-16T13:34:35;4.10;99.90
7016;DHT22;3548;48.402;9.990;2023-01-16T13:40:15;4.00;99.90
7016;DHT22;3548;48.402;9.990;2023-01-16T13:42:56;4.00;99.90
7016;DHT22;3548;48.402;9.990;2023-01-16T13:45:43;4.00;99.90
7016;DHT22;3548;48.402;9.990;2023-01-16T13:48:18;4.00;99.90
7016;DHT22;3548;48.402;9.990;2023-01-16T13:50:52;4.00;99.90
7016;DHT22;3548;48.402;9.990;2023-01-16T13:53:19;4.00;99.90
7016;DHT22;3548;48.402;9.990;2023-01-16T13:55:48;4.10;99.90
7016;DHT22;3548;48.402;9.990;2023-01-16T13:58:20;4.20;99.90
7016;DHT22;3548;48.402;9.990;2023-01-16T14:00:59;4.30;99.90
7016;DHT22;3548;48.402;9.990;2023-01-16T14:03:31;4.30;99.90
7016;DHT22;3548;48.402;9.990;2023-01-16T14:06:16;4.40;99.90
7016;DHT22;3548;48.402;9.990;2023-01-16T14:09:11;4.50;99.90
7016;DHT22;3548;48.402;9.990;2023-01-16T14:11:40;4.60;99.90
7016;DHT22;3548;48.402;9.990;2023-01-16T14:17:09;4.60;99.90
7016;DHT22;3548;48.402;9.990;2023-01-16T14:19:54;4.60;99.90
7016;DHT22;3548;48.402;9.990;2023-01-16T14:22:35;4.60;99.90
7016;DHT22;3548;48.402;9.990;2023-01-16T14:25:02;4.70;99.90
7016;DHT22;3548;48.402;9.990;2023-01-16T14:27:32;4.60;99.90
7016;DHT22;3548;48.402;9.990;2023-01-16T14:30:02;4.60;99.90
7016;DHT22;3548;48.402;9.990;2023-01-16T14:32:30;4.60;99.90
7016;DHT22;3548;48.402;9.990;2023-01-16T14:34:57;4.50;99.90
7016;DHT22;3548;48.402;9.990;2023-01-16T14:42:55;4.50;99.90
7016;DHT22;3548;48.402;9.990;2023-01-16T14:45:42;4.60;99.90
7016;DHT22;3548;48.402;9.990;2023-01-16T14:48:46;4.60;99.90
7016;DHT22;3548;48.402;9.990;2023-01-16T14:51:32;4.60;99.90
7016;DHT22;3548;48.402;9.990;2023-01-16T14:54:26;4.70;99.90
7016;DHT22;3548;48.402;9.990;2023-01-16T14:57:16;4.70;99.90
7016;DHT22;3548;48.402;9.990;2023-01-16T14:59:48;4.80;99.90
7016;DHT22;3548;48.402;9.990;2023-01-16T15:02:46;4.80;99.90
7016;DHT22;3548;48.402;9.990;2023-01-16T15:05:22;4.80;99.90
7016;DHT22;3548;48.402;9.990;2023-01-16T15:07:54;4.70;99.90
7016;DHT22;3548;48.402;9.990;2023-01-16T15:10:30;4.70;99.90
7016;DHT22;3548;48.402;9.990;2023-01-16T15:13:21;4.70;99.90
7016;DHT22;3548;48.402;9.990;2023-01-16T15:15:58;4.70;99.90
7016;DHT22;3548;48.402;9.990;2023-01-16T15:18:25;4.60;99.90
7016;DHT22;3548;48.402;9.990;2023-01-16T15:21:14;4.60;99.90
7016;DHT22;3548;48.402;9.990;2023-01-16T15:23:59;4.50;99.90
7016;DHT22;3548;48.402;9.990;2023-01-16T15:26:54;4.50;99.90
7016;DHT22;3548;48.402;9.990;2023-01-16T15:32:13;4.40;99.90
7016;DHT22;3548;48.402;9.990;2023-01-16T15:34:48;4.40;99.90
7016;DHT22;3548;48.402;9.990;2023-01-16T15:37:29;4.40;99.90
7016;DHT22;3548;48.402;9.990;2023-01-16T15:39:56;4.30;99.90
7016;DHT22;3548;48.402;9.990;2023-01-16T15:42:29;4.40;99.90
7016;DHT22;3548;48.402;9.990;2023-01-16T15:45:34;4.40;99.90
7016;DHT22;3548;48.402;9.990;2023-01-16T15:48:31;4.40;99.90
7016;DHT22;3548;48.402;9.990;2023-01-16T15:51:20;4.50;99.90
7016;DHT22;3548;48.402;9.990;2023-01-16T15:53:48;4.50;99.90
7016;DHT22;3548;48.402;9.990;2023-01-16T15:56:30;4.50;99.90
7016;DHT22;3548;48.402;9.990;2023-01-16T15:58:57;4.40;99.90
7016;DHT22;3548;48.402;9.990;2023-01-16T16:01:30;4.40;99.90
7016;DHT22;3548;48.402;9.990;2023-01-16T16:03:57;4.40;99.90
7016;DHT22;3548;48.402;9.990;2023-01-16T16:06:24;4.30;99.90
7016;DHT22;3548;48.402;9.990;2023-01-16T16:08:52;4.40;99.90
7016;DHT22;3548;48.402;9.990;2023-01-16T16:11:24;4.30;99.90
7016;DHT22;3548;48.402;9.990;2023-01-16T16:14:28;4.30;99.90
7016;DHT22;3548;48.402;9.990;2023-01-16T16:17:34;4.30;99.90
7016;DHT22;3548;48.402;9.990;2023-01-16T16:20:37;4.30;99.90
7016;DHT22;3548;48.402;9.990;2023-01-16T16:23:22;4.30;99.90
7016;DHT22;3548;48.402;9.990;2023-01-16T16:28:28;4.30;99.90
7016;DHT22;3548;48.402;9.990;2023-01-16T16:33:40;4.30;99.90
7016;DHT22;3548;48.402;9.990;2023-01-16T16:36:12;4.30;99.90
7016;DHT22;3548;48.402;9.990;2023-01-16T16:43:50;4.30;99.90
7016;DHT22;3548;48.402;9.990;2023-01-16T16:51:33;4.30;99.90
7016;DHT22;3548;48.402;9.990;2023-01-16T16:54:08;4.30;99.90
7016;DHT22;3548;48.402;9.990;2023-01-16T16:56:37;4.30;99.90
7016;DHT22;3548;48.402;9.990;2023-01-16T16:59:03;4.40;99.90
7016;DHT22;3548;48.402;9.990;2023-01-16T17:01:29;4.40;99.90
7016;DHT22;3548;48.402;9.990;2023-01-16T17:03:58;4.50;99.90
7016;DHT22;3548;48.402;9.990;2023-01-16T17:06:30;4.50;99.90
7016;DHT22;3548;48.402;9.990;2023-01-16T17:08:57;4.60;99.90
7016;DHT22;3548;48.402;9.990;2023-01-16T17:11:23;4.60;99.90
7016;DHT22;3548;48.402;9.990;2023-01-16T17:13:50;4.60;99.90
7016;DHT22;3548;48.402;9.990;2023-01-16T17:16:24;4.60;99.90
7016;DHT22;3548;48.402;9.990;2023-01-16T17:18:58;4.50;99.90
7016;DHT22;3548;48.402;9.990;2023-01-16T17:21:24;4.50;99.90
7016;DHT22;3548;48.402;9.990;2023-01-16T17:23:50;4.50;99.90
7016;DHT22;3548;48.402;9.990;2023-01-16T17:26:16;4.50;99.90
7016;DHT22;3548;48.402;9.990;2023-01-16T17:28:41;4.50;99.90
7016;DHT22;3548;48.402;9.990;2023-01-16T17:31:16;4.50;99.90
7016;DHT22;3548;48.402;9.990;2023-01-16T17:33:44;4.40;99.90
7016;DHT22;3548;48.402;9.990;2023-01-16T17:36:17;4.40;99.90
7016;DHT22;3548;48.402;9.990;2023-01-16T17:38:44;4.40;99.90
7016;DHT22;3548;48.402;9.990;2023-01-16T17:41:21;4.40;99.90
7016;DHT22;3548;48.402;9.990;2023-01-16T17:43:49;4.30;99.90
7016;DHT22;3548;48.402;9.990;2023-01-16T17:46:33;4.30;99.90
7016;DHT22;3548;48.402;9.990;2023-01-16T17:48:59;4.30;99.90
7016;DHT22;3548;48.402;9.990;2023-01-16T17:51:24;4.30;99.90
7016;DHT22;3548;48.402;9.990;2023-01-16T17:53:53;4.30;99.90
7016;DHT22;3548;48.402;9.990;2023-01-16T17:56:20;4.30;99.90
7016;DHT22;3548;48.402;9.990;2023-01-16T17:58:47;4.30;99.90
7016;DHT22;3548;48.402;9.990;2023-01-16T18:01:28;4.30;99.90
7016;DHT22;3548;48.402;9.990;2023-01-16T18:04:04;4.20;99.90
7016;DHT22;3548;48.402;9.990;2023-01-16T18:06:34;4.20;99.90
7016;DHT22;3548;48.402;9.990;2023-01-16T18:09:00;4.10;99.90
7016;DHT22;3548;48.402;9.990;2023-01-16T18:11:32;4.00;99.90
7016;DHT22;3548;48.402;9.990;2023-01-16T18:14:16;3.90;99.90
7016;DHT22;3548;48.402;9.990;2023-01-16T18:17:00;3.80;99.90
7016;DHT22;3548;48.402;9.990;2023-01-16T18:19:51;3.70;99.90
7016;DHT22;3548;48.402;9.990;2023-01-16T18:22:18;3.60;99.90
7016;DHT22;3548;48.402;9.990;2023-01-16T18:24:44;3.60;99.90
7016;DHT22;3548;48.402;9.990;2023-01-16T18:27:13;3.60;99.90
7016;DHT22;3548;48.402;9.990;2023-01-16T18:29:40;3.50;99.90
7016;DHT22;3548;48.402;9.990;2023-01-16T18:32:06;3.50;99.90
7016;DHT22;3548;48.402;9.990;2023-01-16T18:37:12;3.50;99.90
7016;DHT22;3548;48.402;9.990;2023-01-16T18:39:37;3.50;99.90
7016;DHT22;3548;48.402;9.990;2023-01-16T18:42:22;3.50;99.90
7016;DHT22;3548;48.402;9.990;2023-01-16T18:45:11;3.40;99.90
7016;DHT22;3548;48.402;9.990;2023-01-16T18:47:56;3.40;99.90
7016;DHT22;3548;48.402;9.990;2023-01-16T18:50:41;3.40;99.90
7016;DHT22;3548;48.402;9.990;2023-01-16T18:53:34;3.40;99.90
7016;DHT22;3548;48.402;9.990;2023-01-16T18:56:21;3.50;99.90
7016;DHT22;3548;48.402;9.990;2023-01-16T18:59:16;3.50;99.90
7016;DHT22;3548;48.402;9.990;2023-01-16T19:04:49;3.50;99.90
7016;DHT22;3548;48.402;9.990;2023-01-16T19:07:23;3.60;99.90
7016;DHT22;3548;48.402;9.990;2023-01-16T19:09:54;3.60;99.90
7016;DHT22;3548;48.402;9.990;2023-01-16T19:12:22;3.60;99.90
7016;DHT22;3548;48.402;9.990;2023-01-16T19:14:50;3.60;99.90
7016;DHT22;3548;48.402;9.990;2023-01-16T19:17:17;3.60;99.90
7016;DHT22;3548;48.402;9.990;2023-01-16T19:19:43;3.60;99.90
7016;DHT22;3548;48.402;9.990;2023-01-16T19:22:09;3.60;99.90